createdAt,value
2019-03-20T00:00:53.099Z,8.80
2019-03-20T00:03:21.799Z,10.87
2019-03-20T00:05:50.507Z,6.53
2019-03-20T00:08:19.189Z,13.63
2019-03-20T00:10:47.883Z,11.30
2019-03-20T00:13:16.602Z,12.27
2019-03-20T00:15:45.362Z,6.67
2019-03-20T00:18:14.096Z,14.73
2019-03-20T00:20:42.843Z,10.57
2019-03-20T00:23:11.456Z,9.07
2019-03-20T00:25:40.248Z,11.20
2019-03-20T00:28:10.330Z,7.73
2019-03-20T00:30:39.068Z,17.07
2019-03-20T00:33:07.811Z,12.00
2019-03-20T00:35:36.595Z,20.63
2019-03-20T00:38:09.247Z,9.37
2019-03-20T00:40:37.957Z,10.17
2019-03-20T00:43:07.983Z,13.20
2019-03-20T00:45:36.806Z,7.27
2019-03-20T00:48:08.186Z,12.27
2019-03-20T00:50:36.954Z,12.10
2019-03-20T00:53:05.579Z,13.27
2019-03-20T00:55:34.509Z,13.73
2019-03-20T00:58:03.181Z,5.63
2019-03-20T01:00:31.868Z,9.70
2019-03-20T01:03:00.638Z,11.33
2019-03-20T01:05:29.343Z,8.80
2019-03-20T01:07:58.016Z,9.67
2019-03-20T01:10:26.764Z,7.13
2019-03-20T01:12:55.437Z,4.70
2019-03-20T01:15:24.136Z,7.03
2019-03-20T01:17:52.848Z,9.90
2019-03-20T01:20:21.560Z,7.37
2019-03-20T01:22:52.327Z,8.23
2019-03-20T01:25:21.047Z,12.03
2019-03-20T01:27:49.800Z,6.47
2019-03-20T01:30:38.622Z,3.30
2019-03-20T01:33:10.852Z,4.20
2019-03-20T01:35:41.767Z,11.07
2019-03-20T01:38:10.378Z,7.67
2019-03-20T01:40:40.816Z,5.87
2019-03-20T01:43:09.850Z,14.27
2019-03-20T01:45:38.548Z,7.43
2019-03-20T01:48:07.231Z,4.50
2019-03-20T01:50:35.840Z,7.73
2019-03-20T01:53:05.277Z,2.77
2019-03-20T01:55:33.856Z,8.43
2019-03-20T01:58:02.561Z,4.40
2019-03-20T02:00:31.696Z,11.23
2019-03-20T02:03:00.436Z,9.77
2019-03-20T02:05:35.776Z,5.00
2019-03-20T02:07:59.679Z,5.70
2019-03-20T02:10:28.406Z,5.67
2019-03-20T02:12:58.714Z,7.30
2019-03-20T02:15:38.028Z,5.80
2019-03-20T02:17:58.199Z,5.10
2019-03-20T02:20:26.932Z,7.10
2019-03-20T02:22:55.725Z,4.33
2019-03-20T02:25:24.463Z,6.80
2019-03-20T02:27:53.202Z,6.20
2019-03-20T02:30:21.911Z,10.40
2019-03-20T02:32:50.670Z,10.87
2019-03-20T02:35:19.480Z,7.67
2019-03-20T02:37:48.239Z,5.53
2019-03-20T02:40:17.043Z,4.87
2019-03-20T02:42:45.826Z,5.47
2019-03-20T02:45:14.595Z,7.53
2019-03-20T02:47:43.362Z,2.27
2019-03-20T02:50:12.271Z,4.53
2019-03-20T02:52:41.026Z,13.80
2019-03-20T02:55:09.795Z,6.30
2019-03-20T02:57:38.608Z,7.47
2019-03-20T03:00:08.173Z,8.50
2019-03-20T03:02:36.995Z,4.80
2019-03-20T03:05:05.921Z,10.20
2019-03-20T03:07:36.451Z,3.47
2019-03-20T03:10:05.669Z,10.27
2019-03-20T03:12:34.388Z,4.47
2019-03-20T03:15:03.177Z,4.03
2019-03-20T03:17:32.134Z,4.90
2019-03-20T03:20:00.933Z,8.40
2019-03-20T03:22:29.732Z,5.47
2019-03-20T03:24:58.508Z,7.97
2019-03-20T03:27:27.334Z,5.50
2019-03-20T03:29:56.120Z,5.57
2019-03-20T03:32:26.995Z,3.87
2019-03-20T03:34:57.506Z,3.53
2019-03-20T03:37:26.307Z,8.63
2019-03-20T03:39:55.103Z,8.70
2019-03-20T03:42:23.945Z,3.57
2019-03-20T03:44:52.704Z,7.30
2019-03-20T03:47:24.161Z,6.53
2019-03-20T03:49:52.984Z,5.70
2019-03-20T03:52:25.144Z,10.97
2019-03-20T03:54:53.900Z,8.30
2019-03-20T03:57:22.623Z,5.00
2019-03-20T03:59:51.431Z,6.00
2019-03-20T04:02:20.408Z,4.97
2019-03-20T04:04:49.212Z,3.50
2019-03-20T04:07:18.024Z,6.97
2019-03-20T04:09:46.795Z,6.93
2019-03-20T04:12:15.500Z,4.97
2019-03-20T04:14:44.228Z,4.67
2019-03-20T04:17:38.134Z,4.73
2019-03-20T04:20:07.408Z,6.10
2019-03-20T04:22:36.183Z,5.73
2019-03-20T04:25:05.255Z,7.60
2019-03-20T04:27:34.050Z,6.07
2019-03-20T04:30:04.124Z,9.70
2019-03-20T04:32:32.976Z,4.67
2019-03-20T04:35:03.784Z,7.87
2019-03-20T04:37:32.585Z,10.00
2019-03-20T04:40:01.463Z,6.00
2019-03-20T04:42:30.336Z,6.73
2019-03-20T04:44:59.147Z,8.40
2019-03-20T04:47:27.849Z,7.40
2019-03-20T04:49:56.669Z,5.10
2019-03-20T04:52:25.404Z,7.43
2019-03-20T04:54:54.125Z,6.10
2019-03-20T04:57:23.281Z,8.80
2019-03-20T04:59:51.984Z,3.03
2019-03-20T05:02:20.699Z,4.43
2019-03-20T05:04:49.529Z,10.27
2019-03-20T05:07:18.237Z,5.87
2019-03-20T05:09:46.974Z,12.10
2019-03-20T05:12:15.759Z,13.63
2019-03-20T05:14:44.504Z,9.90
2019-03-20T05:17:13.289Z,5.93
2019-03-20T05:19:42.142Z,5.03
2019-03-20T05:22:10.846Z,6.33
2019-03-20T05:24:39.637Z,5.77
2019-03-20T05:27:08.450Z,10.43
2019-03-20T05:29:37.270Z,7.87
2019-03-20T05:32:05.966Z,8.17
2019-03-20T05:34:36.139Z,13.07
2019-03-20T05:37:10.426Z,12.17
2019-03-20T05:39:35.327Z,9.53
2019-03-20T05:42:04.258Z,6.90
2019-03-20T05:44:33.010Z,7.63
2019-03-20T05:47:01.789Z,13.40
2019-03-20T05:49:30.591Z,11.53
2019-03-20T05:51:59.305Z,10.63
2019-03-20T05:54:30.168Z,13.13
2019-03-20T05:56:58.986Z,11.67
2019-03-20T05:59:27.821Z,8.87
2019-03-20T06:02:00.836Z,10.73
2019-03-20T06:04:29.647Z,9.97
2019-03-20T06:06:58.461Z,11.93
2019-03-20T06:09:27.228Z,12.90
2019-03-20T06:11:56.016Z,17.57
2019-03-20T06:14:24.869Z,13.27
2019-03-20T06:16:53.663Z,12.10
2019-03-20T06:19:22.483Z,12.73
2019-03-20T06:21:51.191Z,13.63
2019-03-20T06:24:19.941Z,11.50
2019-03-20T06:26:48.692Z,16.83
2019-03-20T06:29:18.268Z,14.90
2019-03-20T06:31:47.895Z,13.33
2019-03-20T06:34:16.706Z,17.83
2019-03-20T06:36:45.507Z,13.90
2019-03-20T06:39:17.121Z,12.90
2019-03-20T06:41:45.920Z,20.00
2019-03-20T06:44:14.722Z,19.23
2019-03-20T06:46:43.508Z,15.87
2019-03-20T06:49:12.283Z,20.30
2019-03-20T06:51:41.023Z,24.43
2019-03-20T06:54:09.756Z,23.83
2019-03-20T06:56:38.563Z,18.37
2019-03-20T06:59:24.075Z,20.90
2019-03-20T07:01:55.237Z,22.17
2019-03-20T07:04:29.500Z,24.10
2019-03-20T07:07:18.031Z,25.33
2019-03-20T07:09:59.686Z,31.40
2019-03-20T07:12:28.493Z,24.70
2019-03-20T07:14:57.208Z,27.67
2019-03-20T07:17:25.942Z,24.43
2019-03-20T07:19:54.904Z,18.97
2019-03-20T07:22:26.151Z,24.27
2019-03-20T07:24:54.864Z,32.50
2019-03-20T07:27:23.716Z,27.13
2019-03-20T07:29:52.414Z,24.50
2019-03-20T07:32:21.128Z,26.93
2019-03-20T07:34:49.868Z,26.63
2019-03-20T07:37:18.713Z,28.70
2019-03-20T07:39:47.503Z,33.87
2019-03-20T07:42:16.264Z,23.67
2019-03-20T07:44:45.150Z,24.53
2019-03-20T07:47:13.980Z,25.13
2019-03-20T07:49:42.756Z,31.47
2019-03-20T07:52:13.804Z,26.03
2019-03-20T07:54:43.635Z,25.97
2019-03-20T07:57:12.430Z,23.53
2019-03-20T07:59:41.299Z,24.60
2019-03-20T08:02:10.115Z,25.90
2019-03-20T08:04:44.319Z,28.07
2019-03-20T08:07:13.111Z,29.97
2019-03-20T08:09:41.916Z,29.47
2019-03-20T08:12:10.735Z,24.60
2019-03-20T08:14:39.484Z,29.03
2019-03-20T08:17:08.211Z,29.27
2019-03-20T08:19:37.051Z,22.63
2019-03-20T08:22:06.004Z,24.07
2019-03-20T08:24:34.820Z,25.00
2019-03-20T08:27:03.529Z,26.67
2019-03-20T08:29:32.269Z,31.77
2019-03-20T08:32:01.032Z,23.83
2019-03-20T08:34:29.763Z,24.77
2019-03-20T08:36:58.609Z,29.83
2019-03-20T08:39:27.409Z,28.53
2019-03-20T08:41:56.157Z,35.77
2019-03-20T08:44:24.900Z,25.93
2019-03-20T08:46:53.661Z,25.30
2019-03-20T08:49:24.559Z,23.83
2019-03-20T08:51:53.412Z,27.07
2019-03-20T08:54:22.220Z,29.70
2019-03-20T08:56:50.968Z,21.30
2019-03-20T08:59:19.722Z,27.00
2019-03-20T09:01:48.560Z,29.13
2019-03-20T09:04:17.306Z,22.40
2019-03-20T09:06:46.213Z,25.53
2019-03-20T09:09:15.065Z,25.20
2019-03-20T09:11:43.919Z,20.20
2019-03-20T09:14:12.650Z,23.37
2019-03-20T09:16:41.373Z,27.03
2019-03-20T09:19:10.184Z,24.83
2019-03-20T09:21:38.904Z,26.87
2019-03-20T09:24:07.658Z,23.67
2019-03-20T09:26:36.369Z,22.80
2019-03-20T09:29:05.342Z,26.57
2019-03-20T09:31:34.159Z,23.73
2019-03-20T09:34:03.006Z,25.40
2019-03-20T09:36:42.434Z,25.50
2019-03-20T09:39:02.384Z,25.73
2019-03-20T09:41:31.146Z,25.50
2019-03-20T09:43:59.962Z,25.73
2019-03-20T09:46:31.643Z,24.27
2019-03-20T09:49:00.455Z,27.60
2019-03-20T09:51:29.243Z,22.47
2019-03-20T09:53:58.095Z,27.93
2019-03-20T09:56:26.809Z,20.33
2019-03-20T09:58:55.530Z,22.47
2019-03-20T10:01:24.567Z,18.67
2019-03-20T10:03:53.334Z,25.17
2019-03-20T10:06:22.139Z,18.03
2019-03-20T10:08:54.322Z,23.93
2019-03-20T10:11:21.435Z,22.87
2019-03-20T10:13:50.147Z,22.83
2019-03-20T10:16:18.971Z,19.47
2019-03-20T10:18:47.775Z,24.97
2019-03-20T10:21:16.504Z,22.90
2019-03-20T10:23:45.249Z,20.00
2019-03-20T10:26:13.968Z,23.70
2019-03-20T10:28:42.709Z,23.50
2019-03-20T10:31:11.530Z,23.33
2019-03-20T10:33:40.277Z,24.40
2019-03-20T10:36:09.035Z,27.00
2019-03-20T10:38:37.876Z,25.07
2019-03-20T10:41:07.261Z,24.70
2019-03-20T10:43:36.116Z,22.37
2019-03-20T10:46:04.860Z,26.70
2019-03-20T10:48:33.639Z,24.00
2019-03-20T10:51:02.461Z,28.87
2019-03-20T10:53:31.320Z,25.67
2019-03-20T10:56:00.047Z,28.23
2019-03-20T10:58:28.769Z,25.90
2019-03-20T11:00:57.527Z,30.57
2019-03-20T11:03:26.310Z,30.60
2019-03-20T11:05:55.026Z,29.40
2019-03-20T11:08:23.808Z,29.20
2019-03-20T11:10:52.616Z,24.17
2019-03-20T11:13:21.411Z,22.53
2019-03-20T11:15:50.151Z,26.53
2019-03-20T11:18:20.343Z,27.20
2019-03-20T11:20:49.361Z,25.40
2019-03-20T11:23:18.130Z,25.00
2019-03-20T11:25:46.931Z,23.63
2019-03-20T11:28:15.732Z,23.87
2019-03-20T11:30:44.452Z,33.93
2019-03-20T11:33:13.211Z,22.27
2019-03-20T11:35:42.582Z,28.70
2019-03-20T11:38:11.474Z,32.13
2019-03-20T11:40:40.245Z,22.60
2019-03-20T11:43:09.005Z,18.27
2019-03-20T11:45:37.745Z,24.20
2019-03-20T11:48:06.540Z,24.27
2019-03-20T11:50:36.237Z,29.37
2019-03-20T11:53:06.239Z,31.97
2019-03-20T11:55:35.028Z,26.43
2019-03-20T11:58:03.918Z,28.10
2019-03-20T12:00:32.734Z,27.67
2019-03-20T12:03:01.524Z,27.27
2019-03-20T12:05:30.256Z,24.63
2019-03-20T12:07:59.094Z,27.73
2019-03-20T12:10:28.005Z,30.87
2019-03-20T12:12:56.869Z,24.07
2019-03-20T12:15:25.606Z,25.83
2019-03-20T12:17:54.346Z,35.53
2019-03-20T12:20:23.136Z,27.57
2019-03-20T12:22:52.120Z,32.97
2019-03-20T12:25:21.952Z,26.27
2019-03-20T12:27:50.694Z,26.23
2019-03-20T12:30:20.450Z,33.27
2019-03-20T12:32:49.167Z,30.47
2019-03-20T12:35:17.947Z,26.73
2019-03-20T12:37:46.698Z,32.43
2019-03-20T12:40:17.499Z,28.67
2019-03-20T12:42:46.302Z,32.10
2019-03-20T12:45:15.723Z,27.37
2019-03-20T12:47:44.474Z,26.23
2019-03-20T12:50:13.317Z,29.57
2019-03-20T12:52:42.124Z,25.87
2019-03-20T12:55:11.470Z,32.20
2019-03-20T12:57:40.322Z,31.20
2019-03-20T13:00:13.617Z,33.73
2019-03-20T13:02:42.452Z,35.30
2019-03-20T13:05:11.260Z,35.33
2019-03-20T13:07:40.052Z,33.93
2019-03-20T13:10:09.736Z,29.97
2019-03-20T13:12:38.542Z,29.83
2019-03-20T13:15:09.578Z,31.73
2019-03-20T13:17:38.419Z,31.77
2019-03-20T13:20:07.748Z,36.97
2019-03-20T13:22:36.526Z,34.87
2019-03-20T13:25:06.115Z,39.83
2019-03-20T13:27:36.666Z,32.23
2019-03-20T13:30:07.920Z,30.93
2019-03-20T13:32:36.701Z,30.50
2019-03-20T13:35:05.938Z,28.40
2019-03-20T13:37:34.679Z,28.20
2019-03-20T13:40:13.638Z,27.63
2019-03-20T13:42:33.937Z,32.57
2019-03-20T13:45:02.748Z,28.30
2019-03-20T13:47:31.545Z,36.60
2019-03-20T13:50:00.427Z,33.13
2019-03-20T13:52:29.217Z,29.70
2019-03-20T13:54:58.000Z,30.53
2019-03-20T13:57:26.749Z,38.07
2019-03-20T13:59:55.584Z,28.23
2019-03-20T14:02:24.347Z,31.07
2019-03-20T14:04:53.141Z,27.50
2019-03-20T14:07:21.869Z,32.23
2019-03-20T14:09:55.431Z,33.67
2019-03-20T14:12:24.191Z,30.50
2019-03-20T14:14:52.947Z,30.73
2019-03-20T14:17:26.381Z,32.77
2019-03-20T14:19:56.851Z,30.27
2019-03-20T14:22:25.768Z,29.37
2019-03-20T14:24:55.790Z,40.00
2019-03-20T14:27:25.124Z,38.43
2019-03-20T14:29:53.937Z,35.17
2019-03-20T14:32:22.698Z,30.47
2019-03-20T14:34:51.640Z,34.77
2019-03-20T14:37:23.335Z,36.77
2019-03-20T14:39:52.150Z,43.43
2019-03-20T14:42:20.987Z,33.70
2019-03-20T14:44:51.720Z,34.93
2019-03-20T14:47:20.230Z,35.37
2019-03-20T14:49:49.040Z,36.27
2019-03-20T14:52:17.860Z,40.70
2019-03-20T14:54:47.803Z,38.93
2019-03-20T14:57:17.829Z,33.83
2019-03-20T14:59:46.683Z,38.77
2019-03-20T15:02:15.567Z,31.83
2019-03-20T15:04:44.433Z,39.73
2019-03-20T15:07:13.510Z,34.50
2019-03-20T15:09:42.356Z,38.00
2019-03-20T15:12:11.247Z,36.73
2019-03-20T15:14:40.312Z,35.07
2019-03-20T15:17:09.157Z,39.30
2019-03-20T15:19:40.314Z,39.13
2019-03-20T15:22:09.244Z,42.67
2019-03-20T15:24:37.980Z,39.03
2019-03-20T15:27:08.199Z,36.97
2019-03-20T15:29:37.018Z,41.23
2019-03-20T15:32:06.827Z,37.00
2019-03-20T15:34:35.659Z,37.43
2019-03-20T15:37:04.557Z,31.03
2019-03-20T15:39:33.298Z,36.03
2019-03-20T15:42:02.047Z,31.07
2019-03-20T15:44:30.839Z,32.60
2019-03-20T15:47:01.201Z,30.50
2019-03-20T15:49:30.020Z,32.77
2019-03-20T15:51:58.836Z,34.03
2019-03-20T15:54:27.649Z,32.33
2019-03-20T15:56:56.409Z,30.50
2019-03-20T15:59:25.260Z,37.43
2019-03-20T16:01:54.004Z,33.10
2019-03-20T16:04:22.800Z,35.93
2019-03-20T16:06:51.600Z,34.00
2019-03-20T16:09:22.884Z,34.77
2019-03-20T16:11:54.684Z,38.23
2019-03-20T16:14:23.565Z,34.23
2019-03-20T16:16:52.388Z,34.33
2019-03-20T16:19:21.243Z,34.40
2019-03-20T16:21:53.379Z,30.73
2019-03-20T16:24:22.215Z,31.73
2019-03-20T16:26:55.377Z,33.63
2019-03-20T16:29:23.958Z,36.27
2019-03-20T16:31:52.730Z,44.13
2019-03-20T16:34:23.409Z,36.00
2019-03-20T16:36:52.181Z,29.67
2019-03-20T16:39:21.026Z,31.77
2019-03-20T16:41:54.431Z,36.80
2019-03-20T16:44:23.189Z,33.60
2019-03-20T16:46:52.031Z,34.43
2019-03-20T16:49:20.851Z,37.53
2019-03-20T16:51:58.702Z,41.43
2019-03-20T16:54:27.530Z,42.67
2019-03-20T16:56:57.562Z,39.33
2019-03-20T16:59:26.434Z,33.70
2019-03-20T17:01:55.277Z,33.93
2019-03-20T17:04:24.110Z,39.73
2019-03-20T17:06:52.839Z,40.47
2019-03-20T17:09:23.676Z,47.40
2019-03-20T17:11:52.164Z,34.87
2019-03-20T17:14:20.907Z,33.60
2019-03-20T17:16:49.679Z,36.07
2019-03-20T17:19:18.513Z,38.37
2019-03-20T17:21:47.755Z,39.10
2019-03-20T17:24:16.475Z,42.63
2019-03-20T17:26:45.232Z,37.60
2019-03-20T17:29:14.056Z,39.10
2019-03-20T17:31:42.875Z,40.07
2019-03-20T17:34:11.902Z,35.83
2019-03-20T17:36:40.777Z,41.53
2019-03-20T17:39:09.807Z,42.37
2019-03-20T17:41:38.599Z,45.47
2019-03-20T17:44:07.442Z,39.43
2019-03-20T17:46:36.331Z,41.93
2019-03-20T17:49:05.210Z,38.77
2019-03-20T17:51:34.024Z,38.37
2019-03-20T17:54:02.775Z,46.90
2019-03-20T17:56:31.745Z,39.03
2019-03-20T17:59:00.553Z,37.03
2019-03-20T18:01:29.392Z,42.43
2019-03-20T18:03:58.225Z,42.97
2019-03-20T18:06:27.079Z,45.17
2019-03-20T18:08:55.948Z,36.43
2019-03-20T18:11:24.705Z,34.70
2019-03-20T18:13:53.458Z,42.13
2019-03-20T18:16:22.270Z,40.70
2019-03-20T18:18:51.228Z,39.63
2019-03-20T18:21:20.109Z,33.57
2019-03-20T18:23:48.934Z,41.40
2019-03-20T18:26:17.776Z,41.00
2019-03-20T18:28:46.576Z,41.33
2019-03-20T18:31:15.462Z,33.93
2019-03-20T18:33:44.283Z,41.47
2019-03-20T18:36:14.976Z,45.03
2019-03-20T18:38:43.741Z,67.73
2019-03-20T18:41:12.574Z,52.77
2019-03-20T18:43:41.469Z,39.53
2019-03-20T18:46:10.288Z,44.10
2019-03-20T18:48:39.000Z,44.93
2019-03-20T18:51:07.837Z,39.50
2019-03-20T18:53:36.771Z,43.13
2019-03-20T18:56:05.624Z,39.77
2019-03-20T18:58:34.488Z,42.73
2019-03-20T19:01:03.433Z,39.23
2019-03-20T19:03:32.307Z,51.83
2019-03-20T19:06:03.251Z,46.07
2019-03-20T19:08:32.109Z,38.60
2019-03-20T19:11:01.054Z,36.90
2019-03-20T19:13:29.891Z,50.50
2019-03-20T19:15:58.701Z,36.43
2019-03-20T19:18:27.572Z,35.30
2019-03-20T19:20:57.491Z,32.80
2019-03-20T19:23:26.376Z,42.53
2019-03-20T19:25:55.288Z,38.10
2019-03-20T19:28:24.146Z,39.33
2019-03-20T19:30:53.031Z,38.83
2019-03-20T19:33:21.909Z,37.23
2019-03-20T19:35:50.815Z,41.50
2019-03-20T19:38:19.643Z,38.87
2019-03-20T19:40:48.501Z,38.23
2019-03-20T19:43:17.321Z,37.47
2019-03-20T19:45:46.190Z,35.77
2019-03-20T19:48:17.628Z,39.50
2019-03-20T19:50:46.561Z,37.70
2019-03-20T19:53:15.493Z,34.73
2019-03-20T19:55:44.368Z,37.83
2019-03-20T19:58:13.220Z,40.50
2019-03-20T20:00:42.999Z,38.13
2019-03-20T20:03:11.931Z,34.70
2019-03-20T20:05:40.829Z,42.07
2019-03-20T20:08:09.743Z,35.43
2019-03-20T20:10:38.574Z,37.13
2019-03-20T20:13:07.472Z,41.00
2019-03-20T20:15:36.352Z,36.03
2019-03-20T20:18:05.247Z,35.23
2019-03-20T20:20:34.113Z,38.97
2019-03-20T20:23:04.411Z,57.53
2019-03-20T20:25:34.070Z,43.20
2019-03-20T20:28:05.659Z,46.47
2019-03-20T20:30:34.457Z,40.63
2019-03-20T20:33:03.312Z,46.63
2019-03-20T20:35:32.202Z,41.17
2019-03-20T20:38:01.057Z,40.43
2019-03-20T20:40:30.201Z,43.40
2019-03-20T20:42:59.015Z,37.10
2019-03-20T20:45:27.809Z,42.50
2019-03-20T20:47:56.606Z,38.90
2019-03-20T20:50:25.387Z,39.80
2019-03-20T20:52:54.228Z,53.37
2019-03-20T20:55:23.027Z,41.50
2019-03-20T20:57:51.871Z,42.90
2019-03-20T21:00:22.219Z,43.00
2019-03-20T21:02:51.037Z,39.90
2019-03-20T21:05:20.105Z,35.77
2019-03-20T21:07:48.925Z,41.33
2019-03-20T21:10:17.742Z,46.97
2019-03-20T21:12:55.426Z,38.43
2019-03-20T21:15:36.096Z,40.40
2019-03-20T21:18:28.255Z,46.00
2019-03-20T21:20:57.283Z,37.27
2019-03-20T21:23:46.709Z,39.97
2019-03-20T21:26:15.869Z,41.80
2019-03-20T21:29:03.747Z,38.77
2019-03-20T21:31:40.127Z,38.47
2019-03-20T21:34:33.171Z,42.40
2019-03-20T21:37:26.881Z,46.63
2019-03-20T21:39:56.056Z,40.70
2019-03-20T21:42:44.083Z,46.13
2019-03-20T21:45:30.683Z,34.03
2019-03-20T21:47:59.691Z,36.50
2019-03-20T21:51:00.036Z,42.43
2019-03-20T21:53:44.695Z,40.87
2019-03-20T21:56:26.209Z,40.87
2019-03-20T21:59:11.242Z,42.53
2019-03-20T22:01:59.078Z,42.77
2019-03-20T22:04:29.634Z,45.73
2019-03-20T22:07:08.418Z,44.13
2019-03-20T22:10:14.633Z,43.57
2019-03-20T22:13:18.158Z,42.47
2019-03-20T22:16:07.299Z,42.00
2019-03-20T22:18:55.093Z,45.50
2019-03-20T22:21:34.725Z,48.00
2019-03-20T22:24:17.658Z,43.50
2019-03-20T22:26:56.033Z,41.60
2019-03-20T22:29:25.848Z,50.53
2019-03-20T22:31:58.443Z,47.67
2019-03-20T22:34:42.539Z,43.30
2019-03-20T22:37:11.515Z,47.23
2019-03-20T22:40:11.768Z,45.93
2019-03-20T22:42:43.247Z,41.93
2019-03-20T22:45:31.057Z,42.47
2019-03-20T22:48:14.430Z,45.67
2019-03-20T22:51:05.321Z,50.33
2019-03-20T22:53:51.959Z,51.23
2019-03-20T22:56:25.178Z,46.53
2019-03-20T22:58:54.216Z,46.27
2019-03-20T23:01:28.575Z,45.90
2019-03-20T23:03:59.760Z,47.43
2019-03-20T23:06:28.801Z,49.27
2019-03-20T23:08:57.887Z,45.20
2019-03-20T23:11:26.937Z,49.13
2019-03-20T23:13:55.905Z,42.33
2019-03-20T23:16:27.683Z,46.97
2019-03-20T23:18:56.762Z,46.47
2019-03-20T23:21:25.734Z,48.20
2019-03-20T23:23:54.737Z,55.90
2019-03-20T23:26:23.769Z,41.53
2019-03-20T23:28:52.755Z,46.50
2019-03-20T23:31:21.665Z,45.97
2019-03-20T23:33:50.718Z,45.90
2019-03-20T23:36:22.614Z,45.63
2019-03-20T23:38:51.585Z,52.47
2019-03-20T23:41:20.567Z,58.53
2019-03-20T23:43:53.283Z,42.97
2019-03-20T23:46:20.204Z,52.47
2019-03-20T23:48:51.182Z,49.27
2019-03-20T23:51:20.629Z,56.70
2019-03-20T23:53:51.003Z,52.30
2019-03-20T23:56:20.003Z,43.53
2019-03-20T23:58:49.018Z,50.13
